Time;durP1;ratioP1;P1;durP2;ratioP2;P2;SDS_P1;SDS_P2;PMS_P1;PMS_P2;Temp;Humidity;BMP_temperature;BMP_pressure;BME280_temperature;BME280_humidity;BME280_pressure;Samples;Min_cycle;Max_cycle;Signal;HPM_P1;HPM_P2
2023/06/11 04:32:34;;;;;;;;;15.25;14.25;;;;;24.33;59.37;100845.31;4988297;28;45714;-72
2023/06/11 04:35:03;;;;;;;;;18.50;17.50;;;;;24.38;59.21;100854.75;4977119;28;45323;-70
2023/06/11 04:37:38;;;;;;;;;15.00;12.50;;;;;24.29;58.91;100836.53;4977585;28;45542;-72
2023/06/11 04:40:09;;;;;;;;;17.00;15.25;;;;;24.37;59.25;100836.59;4976913;28;45581;-72
2023/06/11 04:42:35;;;;;;;;;15.50;15.00;;;;;24.51;59.33;100855.22;4977552;28;45236;-72
2023/06/11 04:45:01;;;;;;;;;21.75;17.00;;;;;24.56;59.27;100851.16;4976707;28;45519;-69
2023/06/11 04:47:29;;;;;;;;;15.00;14.50;;;;;24.59;59.02;100845.34;4977142;28;45379;-71
2023/06/11 04:50:02;;;;;;;;;17.00;15.50;;;;;24.67;59.33;100857.25;4977046;28;45422;-72
2023/06/11 04:52:28;;;;;;;;;17.25;15.25;;;;;24.70;58.82;100847.84;4977364;28;45457;-72
2023/06/11 04:54:55;;;;;;;;;19.00;19.00;;;;;24.71;58.82;100852.31;4976425;28;45290;-71
2023/06/11 04:57:23;;;;;;;;;22.25;20.00;;;;;24.75;59.04;100851.81;4976298;28;45427;-69
2023/06/11 04:59:49;;;;;;;;;18.50;18.50;;;;;24.71;59.56;100855.06;4963550;28;45452;-71
2023/06/11 05:02:15;;;;;;;;;23.50;18.75;;;;;24.65;59.62;100864.78;4976900;28;45180;-71
2023/06/11 05:04:40;;;;;;;;;20.75;19.00;;;;;24.63;59.99;100860.47;4976922;28;45474;-71
2023/06/11 05:07:07;;;;;;;;;21.00;18.75;;;;;24.57;60.33;100859.22;4976923;28;45505;-73
2023/06/11 05:09:32;;;;;;;;;18.50;18.50;;;;;24.45;61.04;100860.47;4976773;28;45156;-72
2023/06/11 05:11:58;;;;;;;;;21.00;19.00;;;;;24.32;61.67;100847.19;4976911;28;45484;-72
2023/06/11 05:14:23;;;;;;;;;16.75;16.75;;;;;24.27;60.79;100854.13;4976740;28;45196;-72
2023/06/11 05:16:50;;;;;;;;;18.00;15.75;;;;;24.26;61.19;100850.53;4976842;28;45485;-72
2023/06/11 05:19:15;;;;;;;;;19.25;18.25;;;;;24.33;61.19;100854.34;4976779;28;45415;-72
2023/06/11 05:21:41;;;;;;;;;18.75;18.50;;;;;24.20;61.25;100836.56;4977028;28;45387;-72
2023/06/11 05:24:07;;;;;;;;;24.25;19.75;;;;;24.26;61.24;100852.41;4976661;28;45428;-73
2023/06/11 05:26:35;;;;;;;;;21.75;19.75;;;;;24.27;61.45;100854.13;4975737;28;45353;-70
2023/06/11 05:29:02;;;;;;;;;16.75;15.75;;;;;24.29;61.12;100858.44;4976521;28;45386;-71
2023/06/11 05:31:35;;;;;;;;;23.75;17.50;;;;;24.27;61.05;100848.66;4979809;28;45491;-72
2023/06/11 05:34:01;;;;;;;;;19.50;16.50;;;;;24.28;60.88;100840.28;4990933;28;45243;-72
2023/06/11 05:36:27;;;;;;;;;17.00;17.00;;;;;24.40;61.21;100860.09;4996213;28;45322;-74
2023/06/11 05:38:52;;;;;;;;;19.75;17.50;;;;;24.44;60.61;100856.88;4978169;28;45900;-70
2023/06/11 05:41:19;;;;;;;;;18.75;16.50;;;;;24.53;60.62;100863.28;4996242;28;45348;-73
2023/06/11 05:43:44;;;;;;;;;18.75;17.25;;;;;24.57;60.63;100869.34;4995845;28;45385;-72
2023/06/11 05:46:13;;;;;;;;;19.00;17.00;;;;;24.60;60.59;100867.13;4995743;28;47513;-70
2023/06/11 05:48:38;;;;;;;;;17.25;16.75;;;;;24.64;60.17;100862.19;4995716;28;45394;-73
2023/06/11 05:51:03;;;;;;;;;18.50;16.50;;;;;24.70;60.24;100865.16;4995970;28;45563;-73
2023/06/11 05:53:29;;;;;;;;;15.00;14.00;;;;;24.75;60.30;100862.78;4995832;28;45318;-72
2023/06/11 05:55:54;;;;;;;;;16.00;16.00;;;;;24.80;59.78;100859.59;4995604;28;45364;-70
2023/06/11 05:58:20;;;;;;;;;24.50;21.50;;;;;24.80;59.81;100874.16;4991954;28;45381;-72
2023/06/11 06:00:45;;;;;;;;;17.75;17.25;;;;;24.76;59.89;100867.25;4986374;28;45517;-71
2023/06/11 06:03:10;;;;;;;;;17.75;16.75;;;;;24.76;59.72;100871.88;4995560;28;45403;-72
2023/06/11 06:05:36;;;;;;;;;16.75;15.25;;;;;24.78;59.25;100869.84;4995667;28;46091;-70
2023/06/11 06:08:01;;;;;;;;;18.50;17.50;;;;;24.78;59.16;100869.84;4994187;28;45354;-72
2023/06/11 06:10:26;;;;;;;;;17.00;16.50;;;;;24.86;59.42;100880.88;4975288;28;45366;-70
2023/06/11 06:12:52;;;;;;;;;20.00;17.50;;;;;24.91;59.14;100878.56;4992117;28;45405;-72
2023/06/11 06:15:17;;;;;;;;;22.25;18.75;;;;;24.81;59.35;100873.13;4995606;28;46317;-72
2023/06/11 06:17:43;;;;;;;;;23.50;17.50;;;;;24.69;59.45;100877.13;4995319;28;45307;-71
2023/06/11 06:20:10;;;;;;;;;16.50;15.75;;;;;24.51;59.46;100874.41;4995845;28;45318;-72
2023/06/11 06:22:37;;;;;;;;;16.00;16.00;;;;;24.49;59.60;100876.47;4995377;28;45589;-71
2023/06/11 06:25:03;;;;;;;;;13.75;13.75;;;;;24.53;59.56;100871.50;4995272;28;45376;-72
2023/06/11 06:27:28;;;;;;;;;20.75;18.50;;;;;24.63;59.14;100880.53;4995169;28;45323;-73
2023/06/11 06:29:53;;;;;;;;;20.00;16.75;;;;;24.71;59.39;100883.34;4995247;28;46146;-71
2023/06/11 06:32:19;;;;;;;;;16.00;14.00;;;;;24.77;59.04;100884.56;4995002;28;45376;-71
2023/06/11 06:34:44;;;;;;;;;18.00;15.75;;;;;24.81;59.11;100877.75;4989062;28;46178;-71
2023/06/11 06:37:11;;;;;;;;;16.50;16.00;;;;;24.92;58.28;100883.03;4995388;28;45409;-72
2023/06/11 06:39:36;;;;;;;;;7.75;7.75;;;;;24.93;56.58;100884.72;4995193;28;45329;-71
2023/06/11 06:42:02;;;;;;;;;11.25;9.50;;;;;24.90;57.35;100871.31;4994949;28;45512;-70
2023/06/11 06:44:27;;;;;;;;;11.75;10.25;;;;;24.98;57.33;100879.66;4995276;28;46151;-72
2023/06/11 06:46:53;;;;;;;;;11.00;9.00;;;;;24.98;56.75;100876.03;4995166;28;45224;-72
2023/06/11 06:49:20;;;;;;;;;8.00;8.00;;;;;24.87;56.72;100877.97;4995566;28;45457;-69
2023/06/11 06:51:46;;;;;;;;;8.25;5.75;;;;;24.78;57.09;100865.22;4994722;28;45561;-71
2023/06/11 06:54:12;;;;;;;;;6.00;6.00;;;;;24.85;57.61;100880.00;4994832;28;45571;-77
2023/06/11 06:56:37;;;;;;;;;7.75;7.75;;;;;24.91;58.20;100881.31;4995200;28;45367;-71
2023/06/11 06:59:02;;;;;;;;;8.00;8.00;;;;;24.92;59.09;100883.03;4985397;28;45280;-71
2023/06/11 07:01:28;;;;;;;;;8.25;8.25;;;;;24.89;59.99;100889.66;4991150;28;45523;-71
2023/06/11 07:03:53;;;;;;;;;10.75;8.00;;;;;24.89;60.08;100886.06;4995865;28;46143;-74
2023/06/11 07:06:18;;;;;;;;;14.00;11.25;;;;;24.92;60.51;100888.53;4994770;28;45316;-72
2023/06/11 07:08:44;;;;;;;;;9.00;8.00;;;;;24.95;60.43;100893.66;4995258;28;45345;-77
2023/06/11 07:11:09;;;;;;;;;7.25;6.50;;;;;24.82;60.20;100872.13;4988187;28;45302;-77
2023/06/11 07:13:35;;;;;;;;;13.25;11.50;;;;;24.98;61.52;100904.34;4994756;28;45392;-73
2023/06/11 07:16:00;;;;;;;;;11.00;10.25;;;;;24.91;61.95;100899.63;4994545;28;45359;-74
2023/06/11 07:18:27;;;;;;;;;13.00;11.25;;;;;24.88;61.82;100909.00;4994978;28;45445;-71
2023/06/11 07:20:53;;;;;;;;;13.00;11.25;;;;;24.96;61.76;100911.84;4978659;28;45535;-73
2023/06/11 07:23:18;;;;;;;;;12.50;12.50;;;;;25.07;61.33;100908.00;4984073;28;45480;-74
2023/06/11 07:25:44;;;;;;;;;14.00;11.50;;;;;25.05;61.22;100916.38;4994023;28;45306;-74
2023/06/11 07:28:10;;;;;;;;;16.50;16.50;;;;;25.00;61.73;100920.63;4994734;28;45473;-73
2023/06/11 07:30:36;;;;;;;;;15.25;13.75;;;;;24.94;62.52;100913.88;4976725;28;45547;-75
2023/06/11 07:33:02;;;;;;;;;14.75;13.25;;;;;24.99;61.75;100917.03;4967281;28;47444;-73
2023/06/11 07:35:27;;;;;;;;;15.25;15.00;;;;;24.98;62.01;100911.69;4990037;28;45415;-73
2023/06/11 07:37:54;;;;;;;;;12.00;12.00;;;;;24.97;61.58;100905.34;4994743;28;45379;-72
2023/06/11 07:40:20;;;;;;;;;17.00;14.25;;;;;25.05;62.14;100916.38;4993754;28;45463;-73
2023/06/11 07:42:47;;;;;;;;;16.25;14.00;;;;;25.16;62.08;100929.00;4994564;28;45516;-71
2023/06/11 07:45:13;;;;;;;;;16.50;16.00;;;;;25.22;61.88;100925.59;4993822;28;45350;-73
2023/06/11 07:47:39;;;;;;;;;13.75;13.50;;;;;25.28;62.08;100927.69;4973398;28;45374;-71
2023/06/11 07:50:05;;;;;;;;;20.75;15.50;;;;;25.24;62.13;100907.97;4993429;28;45641;-72
2023/06/11 07:52:31;;;;;;;;;17.00;15.50;;;;;25.33;61.72;100929.97;4993986;28;46303;-71
2023/06/11 07:54:56;;;;;;;;;18.25;17.75;;;;;25.30;62.14;100922.06;4992419;28;45411;-74
2023/06/11 07:57:22;;;;;;;;;19.25;15.50;;;;;25.30;61.90;100930.28;4976534;28;45346;-72
2023/06/11 07:59:47;;;;;;;;;16.75;16.75;;;;;25.28;61.65;100924.94;4980840;28;45554;-74
2023/06/11 08:02:13;;;;;;;;;16.75;16.75;;;;;25.31;61.99;100913.66;4994267;28;45890;-73
2023/06/11 08:04:38;;;;;;;;;15.25;14.50;;;;;25.36;61.47;100919.50;4993900;28;45443;-73
2023/06/11 08:07:05;;;;;;;;;22.25;15.50;;;;;25.45;61.55;100914.94;4994403;28;45516;-72
2023/06/11 08:09:32;;;;;;;;;11.75;11.75;;;;;25.46;61.17;100914.78;4993767;28;45583;-71
2023/06/11 08:11:57;;;;;;;;;17.25;16.50;;;;;25.35;61.76;100905.97;4975977;28;46657;-72
2023/06/11 08:14:22;;;;;;;;;8.00;7.00;;;;;25.46;61.43;100908.44;4993048;28;45489;-73
2023/06/11 08:16:48;;;;;;;;;20.00;16.00;;;;;25.50;61.34;100918.06;4993317;28;45403;-72
2023/06/11 08:19:14;;;;;;;;;17.75;16.00;;;;;25.48;61.15;100895.41;4992755;28;50320;-70
2023/06/11 08:21:40;;;;;;;;;19.25;17.25;;;;;25.59;60.88;100917.13;4993783;28;45596;-70
2023/06/11 08:24:07;;;;;;;;;15.00;15.00;;;;;25.67;61.06;100910.81;4992913;28;45379;-69
2023/06/11 08:26:32;;;;;;;;;16.50;15.00;;;;;25.78;60.42;100903.13;4993753;28;45393;-71
2023/06/11 08:28:59;;;;;;;;;19.00;14.50;;;;;25.80;60.20;100903.84;4992544;28;45409;-70
2023/06/11 08:31:25;;;;;;;;;17.00;16.00;;;;;25.83;60.03;100908.16;4994817;28;46140;-70
2023/06/11 08:33:51;;;;;;;;;19.25;16.25;;;;;25.68;60.67;100899.69;4996434;28;45307;-71
2023/06/11 08:36:17;;;;;;;;;14.50;14.50;;;;;25.74;60.96;100901.75;4997414;28;45693;-70
2023/06/11 08:38:42;;;;;;;;;10.25;9.25;;;;;25.68;61.10;100907.06;4996619;28;45512;-73
2023/06/11 08:41:08;;;;;;;;;15.75;15.50;;;;;25.59;61.31;100901.53;4996609;28;46007;-71
2023/06/11 08:43:33;;;;;;;;;19.50;16.25;;;;;25.54;61.05;100892.88;4996755;28;45391;-71
2023/06/11 08:45:59;;;;;;;;;16.75;14.75;;;;;25.54;61.14;100903.84;4997096;28;45378;-73
2023/06/11 08:48:29;;;;;;;;;17.25;15.50;;;;;25.47;62.09;100891.81;4996593;28;45531;-69
2023/06/11 08:50:54;;;;;;;;;18.50;16.00;;;;;25.58;61.80;100899.75;4996995;28;45441;-69
2023/06/11 08:53:20;;;;;;;;;17.75;16.75;;;;;25.54;61.65;100889.25;4996283;28;45512;-72
2023/06/11 08:55:46;;;;;;;;;18.75;16.00;;;;;25.66;61.70;100896.22;4996627;28;45484;-73
2023/06/11 08:58:13;;;;;;;;;20.50;20.50;;;;;25.53;63.38;100904.88;4993628;28;45517;-73
2023/06/11 09:00:38;;;;;;;;;19.00;17.75;;;;;25.53;62.23;100888.41;4986432;28;45343;-73
2023/06/11 09:03:04;;;;;;;;;15.75;14.00;;;;;25.58;61.80;100899.75;4996448;28;45397;-73
2023/06/11 09:05:32;;;;;;;;;16.00;13.25;;;;;25.67;61.11;100894.34;4987214;28;45423;-71
2023/06/11 09:07:58;;;;;;;;;19.25;17.00;;;;;25.74;60.98;100901.75;4962305;28;46335;-73
2023/06/11 09:10:23;;;;;;;;;16.75;16.50;;;;;25.82;61.00;100900.94;4994222;28;46096;-74
2023/06/11 09:12:49;;;;;;;;;18.75;18.75;;;;;25.82;61.12;100901.78;4992730;28;45359;-72
2023/06/11 09:15:15;;;;;;;;;14.75;14.50;;;;;25.91;61.11;100897.19;4996837;28;45659;-73
2023/06/11 09:17:43;;;;;;;;;20.00;19.50;;;;;25.89;61.54;100910.22;4993759;28;45602;-70
2023/06/11 09:20:11;;;;;;;;;21.50;16.75;;;;;25.95;61.38;100904.94;4986646;28;45482;-72
2023/06/11 09:22:37;;;;;;;;;22.00;19.75;;;;;25.91;60.59;100909.06;4995834;28;45336;-73
2023/06/11 09:25:10;;;;;;;;;19.00;19.00;;;;;25.90;60.16;100911.97;4996008;28;45403;-75
2023/06/11 09:27:39;;;;;;;;;21.25;19.25;;;;;25.75;60.39;100902.63;4996139;28;45358;-74
2023/06/11 09:30:08;;;;;;;;;20.25;19.00;;;;;25.70;61.08;100903.09;4990232;28;46133;-73
2023/06/11 09:32:41;;;;;;;;;20.00;17.50;;;;;25.72;60.48;100916.69;4982790;28;45524;-72
2023/06/11 09:35:08;;;;;;;;;24.75;21.75;;;;;25.80;60.74;100925.81;4978747;28;45949;-72
2023/06/11 09:37:42;;;;;;;;;18.75;17.75;;;;;25.72;60.84;100925.78;4996001;28;45929;-73
2023/06/11 09:40:14;;;;;;;;;22.75;21.50;;;;;25.75;60.82;100930.09;4995214;28;46522;-76
2023/06/11 09:42:40;;;;;;;;;18.50;18.50;;;;;25.73;60.70;100916.50;4995535;28;45358;-72
2023/06/11 09:45:13;;;;;;;;;20.00;19.00;;;;;25.89;60.58;100929.47;4996020;28;45355;-73
2023/06/11 09:47:39;;;;;;;;;23.50;22.00;;;;;25.86;60.18;100930.63;4995838;28;45380;-71
2023/06/11 09:50:06;;;;;;;;;18.50;17.25;;;;;25.97;59.98;100930.34;4995040;28;55477;-72
2023/06/11 09:52:34;;;;;;;;;24.50;22.00;;;;;26.03;59.85;100930.75;4995751;28;45495;-73
2023/06/11 09:55:00;;;;;;;;;20.25;19.25;;;;;26.01;60.14;100933.66;4995390;28;45282;-76
2023/06/11 09:57:29;;;;;;;;;23.25;17.75;;;;;25.92;60.31;100931.88;4995949;28;45443;-75
2023/06/11 09:59:55;;;;;;;;;23.75;20.50;;;;;25.83;59.80;100941.97;4982373;28;45499;-73
2023/06/11 10:02:22;;;;;;;;;22.00;21.75;;;;;25.81;60.49;100948.66;4996077;28;45762;-73
2023/06/11 10:04:48;;;;;;;;;22.00;15.50;;;;;25.88;59.76;100946.97;4966246;28;45324;-75
2023/06/11 10:07:15;;;;;;;;;22.50;22.50;;;;;25.82;59.79;100943.00;4995660;28;45421;-73
2023/06/11 10:09:42;;;;;;;;;20.75;19.75;;;;;25.88;59.60;100942.34;4995356;28;46370;-75
2023/06/11 10:12:08;;;;;;;;;22.00;22.00;;;;;25.99;59.49;100933.81;4990032;28;45375;-75
2023/06/11 10:14:34;;;;;;;;;22.00;21.25;;;;;26.05;59.01;100935.03;4995414;28;45423;-76
2023/06/11 10:17:02;;;;;;;;;24.25;23.75;;;;;26.08;58.16;100939.34;4995616;28;45618;-75
2023/06/11 10:19:36;;;;;;;;;19.50;18.50;;;;;26.04;58.15;100918.69;4996566;28;45628;-74
2023/06/11 10:22:02;;;;;;;;;25.00;23.50;;;;;26.16;59.83;100933.88;4995822;28;45281;-76
2023/06/11 10:24:28;;;;;;;;;27.50;24.50;;;;;26.08;59.91;100950.31;4995701;28;45394;-69
2023/06/11 10:27:33;;;;;;;;;28.50;26.50;;;;;25.98;60.40;100942.22;4994610;28;45354;-67
2023/06/11 10:29:59;;;;;;;;;23.75;20.50;;;;;26.02;60.60;100951.88;4988574;28;45489;-69
2023/06/11 10:32:25;;;;;;;;;34.25;31.25;;;;;26.00;61.04;100953.91;4994922;28;45502;-67
2023/06/11 10:34:58;;;;;;;;;38.25;32.00;;;;;25.93;60.73;100966.59;4994147;28;45401;-67
2023/06/11 10:37:33;;;;;;;;;31.50;27.75;;;;;25.88;61.17;100958.81;4981486;28;45216;-67
2023/06/11 10:39:59;;;;;;;;;31.75;30.00;;;;;25.90;61.53;100956.78;4994636;28;46258;-67
2023/06/11 10:42:42;;;;;;;;;29.75;29.50;;;;;26.10;60.69;100968.38;4977049;28;45311;-70
2023/06/11 10:45:11;;;;;;;;;33.25;25.75;;;;;26.06;60.55;100961.47;4995219;28;45307;-66
2023/06/11 10:47:45;;;;;;;;;27.00;26.00;;;;;26.07;59.78;100951.34;4985606;28;45508;-66
2023/06/11 10:50:12;;;;;;;;;33.25;30.00;;;;;26.19;59.76;100956.41;4977970;28;46180;-68
2023/06/11 10:52:51;;;;;;;;;33.50;32.50;;;;;26.08;60.80;100959.44;4995077;28;45404;-68
2023/06/11 10:55:20;;;;;;;;;35.25;30.75;;;;;25.96;60.94;100944.25;4993951;28;45502;-69
2023/06/11 10:57:46;;;;;;;;;34.25;32.50;;;;;25.89;60.65;100951.44;4995009;28;45533;-70
2023/06/11 11:00:12;;;;;;;;;35.75;32.25;;;;;25.90;60.84;100956.78;4981489;28;46237;-70
2023/06/11 11:02:38;;;;;;;;;31.75;30.25;;;;;25.80;61.02;100956.03;4985577;28;45476;-72
2023/06/11 11:05:07;;;;;;;;;34.75;33.25;;;;;25.76;60.63;100951.03;4977357;28;45393;-69
2023/06/11 11:07:34;;;;;;;;;35.50;33.00;;;;;25.74;60.88;100947.59;4975307;28;45585;-72
2023/06/11 11:10:08;;;;;;;;;37.00;34.25;;;;;25.69;60.74;100945.31;4976495;28;45292;-70
2023/06/11 11:12:36;;;;;;;;;33.50;30.75;;;;;25.74;61.05;100959.44;4977459;28;45528;-71
2023/06/11 11:15:02;;;;;;;;;39.00;33.25;;;;;25.61;60.96;100948.88;4977106;28;45358;-72
2023/06/11 11:17:28;;;;;;;;;38.50;33.25;;;;;25.71;60.22;100946.03;4975372;28;45456;-71
2023/06/11 11:19:54;;;;;;;;;40.25;32.75;;;;;25.72;60.70;100939.50;4975797;28;45299;-71
2023/06/11 11:22:19;;;;;;;;;33.25;29.25;;;;;25.94;60.27;100940.84;4977877;28;45519;-68
2023/06/11 11:24:45;;;;;;;;;33.00;29.00;;;;;26.13;60.01;100943.28;4976969;28;45307;-71
2023/06/11 11:27:10;;;;;;;;;30.00;28.75;;;;;26.33;59.56;100947.53;4975206;28;45524;-72
2023/06/11 11:29:37;;;;;;;;;29.50;28.75;;;;;26.41;58.60;100930.19;4975350;28;46245;-73
2023/06/11 11:32:02;;;;;;;;;39.75;32.75;;;;;26.45;57.96;100944.47;4977022;28;45486;-70
2023/06/11 11:34:28;;;;;;;;;41.00;33.00;;;;;26.32;58.10;100950.44;4976466;28;45454;-71
2023/06/11 11:36:54;;;;;;;;;34.25;31.75;;;;;26.29;58.38;100951.63;4959121;28;45631;-71
2023/06/11 11:39:20;;;;;;;;;29.75;27.50;;;;;26.19;58.56;100937.16;4974692;28;45342;-70
2023/06/11 11:41:50;;;;;;;;;36.50;30.00;;;;;26.31;58.12;100955.06;4973542;28;45535;-68
2023/06/11 11:44:16;;;;;;;;;31.25;28.75;;;;;26.29;58.73;100954.38;4974695;28;45494;-71
2023/06/11 11:46:41;;;;;;;;;33.75;28.25;;;;;26.32;58.07;100955.94;4978772;28;45425;-72
2023/06/11 11:49:08;;;;;;;;;36.75;29.25;;;;;26.52;57.28;100951.88;4983341;28;47077;-71
2023/06/11 11:51:40;;;;;;;;;26.75;25.75;;;;;26.67;57.12;100946.56;4993918;28;45306;-70
2023/06/11 11:54:06;;;;;;;;;25.50;25.00;;;;;26.82;56.88;100941.25;4993988;28;45286;-71
2023/06/11 11:56:33;;;;;;;;;31.75;28.50;;;;;26.87;56.65;100947.13;4994212;28;45545;-69
2023/06/11 11:58:59;;;;;;;;;27.50;26.50;;;;;26.82;56.53;100941.25;4984995;28;46224;-70
2023/06/11 12:01:30;;;;;;;;;29.50;26.50;;;;;26.82;55.90;100942.13;4990297;28;45355;-70
2023/06/11 12:04:05;;;;;;;;;27.75;26.75;;;;;26.75;56.34;100927.31;4994601;28;45322;-70
2023/06/11 12:06:30;;;;;;;;;25.50;23.00;;;;;26.82;55.77;100931.13;4996708;28;45338;-70
2023/06/11 12:08:56;;;;;;;;;28.25;26.75;;;;;26.90;55.52;100927.50;4997266;28;45790;-70
2023/06/11 12:11:22;;;;;;;;;24.00;22.25;;;;;26.71;56.15;100939.72;4991817;28;46827;-70
2023/06/11 12:13:47;;;;;;;;;25.00;21.50;;;;;26.63;56.35;100928.69;4997568;28;45330;-71
2023/06/11 12:16:14;;;;;;;;;29.00;28.50;;;;;26.52;56.36;100927.13;4997524;28;45283;-73
2023/06/11 12:18:40;;;;;;;;;28.50;26.50;;;;;26.53;56.49;100920.63;4997623;28;45284;-69
2023/06/11 12:21:07;;;;;;;;;24.50;23.00;;;;;26.53;56.28;100911.50;4997922;28;45406;-71
2023/06/11 12:23:33;;;;;;;;;27.25;21.25;;;;;26.64;57.05;100911.16;4999651;28;45489;-69
2023/06/11 12:26:00;;;;;;;;;25.75;25.75;;;;;26.74;56.39;100912.72;4996935;28;45504;-71
2023/06/11 12:28:25;;;;;;;;;21.75;21.75;;;;;26.70;56.64;100910.50;4996935;28;47282;-71
2023/06/11 12:30:51;;;;;;;;;23.00;23.00;;;;;26.75;56.18;100921.84;4997445;28;45368;-70
2023/06/11 12:33:16;;;;;;;;;32.25;25.00;;;;;26.65;55.88;100888.97;4993480;28;45404;-73
2023/06/11 12:35:43;;;;;;;;;34.00;31.75;;;;;26.72;55.64;100919.41;4995482;28;45389;-70
2023/06/11 12:38:08;;;;;;;;;35.00;31.50;;;;;26.56;56.43;100898.25;4997002;28;45535;-72
2023/06/11 12:40:34;;;;;;;;;31.00;29.00;;;;;26.53;57.13;100911.50;4996471;28;45244;-73
2023/06/11 12:43:00;;;;;;;;;36.25;28.50;;;;;26.44;56.99;100898.75;4997038;28;45696;-73
2023/06/11 12:45:27;;;;;;;;;27.00;25.50;;;;;26.60;56.46;100910.66;4997191;28;45387;-72
2023/06/11 12:47:52;;;;;;;;;28.25;27.50;;;;;26.71;56.18;100913.03;4997043;28;46104;-71
2023/06/11 12:50:17;;;;;;;;;31.00;28.75;;;;;26.74;55.11;100920.97;4996859;28;45391;-73
2023/06/11 12:52:45;;;;;;;;;26.25;26.25;;;;;26.71;55.38;100921.28;4997031;28;45379;-72
2023/06/11 12:55:10;;;;;;;;;27.50;24.00;;;;;26.67;55.78;100922.69;4996378;28;45373;-72
2023/06/11 12:57:35;;;;;;;;;30.50;24.50;;;;;26.74;55.72;100914.59;4996636;28;45948;-72
2023/06/11 13:00:03;;;;;;;;;30.00;25.75;;;;;26.85;55.94;100924.41;4982796;28;45450;-72
2023/06/11 13:02:28;;;;;;;;;24.00;22.50;;;;;26.86;55.60;100920.63;4996363;28;45451;-72
2023/06/11 13:04:54;;;;;;;;;27.00;25.50;;;;;26.89;55.06;100918.38;4996371;28;45259;-73
2023/06/11 13:07:19;;;;;;;;;29.00;25.00;;;;;26.94;54.50;100924.28;4996341;28;45497;-71
2023/06/11 13:09:45;;;;;;;;;28.25;27.50;;;;;27.06;54.90;100916.53;4996105;28;45561;-72
2023/06/11 13:12:11;;;;;;;;;27.75;24.75;;;;;27.21;54.58;100919.47;4990998;28;45367;-74
2023/06/11 13:14:36;;;;;;;;;32.00;29.00;;;;;27.27;53.10;100919.63;4996166;28;45541;-72
2023/06/11 13:17:01;;;;;;;;;22.75;22.75;;;;;27.42;52.34;100923.38;4995721;28;46325;-71
2023/06/11 13:19:27;;;;;;;;;29.75;25.00;;;;;27.52;52.63;100927.81;4996128;28;45435;-73
2023/06/11 13:21:52;;;;;;;;;28.75;26.75;;;;;27.62;52.69;100926.63;4996592;28;45336;-72
2023/06/11 13:24:18;;;;;;;;;26.00;24.25;;;;;27.67;51.61;100918.69;4995879;28;45504;-73
2023/06/11 13:26:44;;;;;;;;;24.00;23.50;;;;;27.79;52.29;100932.97;4996454;28;45894;-73
2023/06/11 13:29:09;;;;;;;;;24.25;22.75;;;;;27.83;51.44;100923.28;4996041;28;45386;-73
2023/06/11 13:31:35;;;;;;;;;25.75;25.50;;;;;27.92;51.51;100921.34;4996471;28;45274;-72
2023/06/11 13:34:01;;;;;;;;;26.50;22.25;;;;;27.95;51.74;100913.59;4990272;28;45595;-73
2023/06/11 13:36:26;;;;;;;;;17.25;17.25;;;;;28.00;51.59;100922.19;4996210;28;46144;-73
2023/06/11 13:38:51;;;;;;;;;30.00;26.50;;;;;27.95;51.38;100924.63;4995522;28;45319;-73
2023/06/11 13:41:17;;;;;;;;;27.50;25.75;;;;;27.92;51.63;100911.19;4996297;28;45353;-74
2023/06/11 13:43:42;;;;;;;;;30.00;26.25;;;;;27.95;51.58;100921.88;4995740;28;45410;-73
2023/06/11 13:46:08;;;;;;;;;26.25;24.25;;;;;27.99;51.63;100920.47;4996076;28;46193;-74
2023/06/11 13:48:33;;;;;;;;;35.00;29.75;;;;;27.92;52.16;100932.38;4996082;28;45588;-74
2023/06/11 13:50:59;;;;;;;;;29.50;26.75;;;;;27.81;52.38;100933.66;4996332;28;45300;-74
2023/06/11 13:53:24;;;;;;;;;33.75;30.00;;;;;27.76;52.31;100930.53;4977899;28;47142;-73
2023/06/11 13:55:50;;;;;;;;;23.00;20.75;;;;;27.74;52.83;100929.84;4995628;28;46096;-73
2023/06/11 13:58:16;;;;;;;;;26.25;24.75;;;;;27.83;53.14;100937.06;4992655;28;45337;-73
2023/06/11 14:00:42;;;;;;;;;29.50;26.50;;;;;27.90;52.67;100934.47;4986232;28;45535;-73
2023/06/11 14:03:09;;;;;;;;;26.25;26.25;;;;;28.00;52.60;100935.09;4995827;28;46136;-73
2023/06/11 14:05:34;;;;;;;;;19.00;18.25;;;;;28.01;51.28;100934.06;4995970;28;45381;-73
2023/06/11 14:08:00;;;;;;;;;15.75;15.75;;;;;28.04;50.97;100917.19;4995440;28;45472;-73
2023/06/11 14:10:26;;;;;;;;;21.75;20.75;;;;;28.09;50.42;100914.72;4993581;28;45277;-73
2023/06/11 14:12:52;;;;;;;;;24.25;21.00;;;;;28.13;50.08;100911.44;4992588;28;45439;-72
2023/06/11 14:15:17;;;;;;;;;20.50;18.75;;;;;28.21;50.70;100916.09;4995447;28;45426;-72
2023/06/11 14:17:43;;;;;;;;;25.50;22.75;;;;;28.09;50.49;100914.72;4995702;28;45180;-72
2023/06/11 14:20:09;;;;;;;;;25.50;23.00;;;;;28.01;50.95;100901.84;4977999;28;45500;-72
2023/06/11 14:22:35;;;;;;;;;23.25;21.00;;;;;28.02;51.13;100905.47;4995361;28;45511;-74
2023/06/11 14:25:02;;;;;;;;;29.25;23.25;;;;;27.85;50.83;100902.78;4995242;28;46190;-73
2023/06/11 14:27:30;;;;;;;;;29.50;26.25;;;;;27.76;51.24;100917.63;4995321;28;45446;-73
2023/06/11 14:29:56;;;;;;;;;29.50;27.00;;;;;27.56;51.26;100909.97;4994366;28;45325;-70
2023/06/11 14:32:22;;;;;;;;;28.00;25.50;;;;;27.55;51.48;100905.50;4995290;28;45338;-75
2023/06/11 14:34:47;;;;;;;;;24.00;23.00;;;;;27.64;51.24;100908.03;4972517;28;47410;-72
2023/06/11 14:37:13;;;;;;;;;22.75;22.00;;;;;27.53;51.29;100893.75;4994882;28;49657;-73
2023/06/11 14:39:39;;;;;;;;;20.75;20.50;;;;;27.64;51.54;100899.78;4995437;28;45486;-73
2023/06/11 14:42:06;;;;;;;;;29.75;25.00;;;;;27.75;51.39;100904.03;4995209;28;45483;-74
2023/06/11 14:44:32;;;;;;;;;25.25;23.00;;;;;27.76;51.53;100917.63;4977541;28;46390;-72
2023/06/11 14:46:57;;;;;;;;;29.25;22.75;;;;;27.74;51.21;100919.69;4995254;28;45338;-74
2023/06/11 14:49:23;;;;;;;;;19.75;19.75;;;;;27.80;52.12;100921.75;4977952;28;45494;-70
2023/06/11 14:51:48;;;;;;;;;19.50;17.50;;;;;27.81;52.26;100909.72;4995143;28;45309;-75
2023/06/11 14:54:14;;;;;;;;;29.25;27.50;;;;;27.93;52.66;100934.09;4994874;28;46609;-74
2023/06/11 14:56:39;;;;;;;;;31.25;26.75;;;;;27.93;53.71;100923.06;4994386;28;45286;-72
2023/06/11 14:59:05;;;;;;;;;31.50;26.00;;;;;27.92;53.89;100924.97;4984951;28;45582;-75
2023/06/11 15:01:31;;;;;;;;;29.25;27.50;;;;;27.88;53.95;100925.53;4991867;28;45508;-73
2023/06/11 15:03:57;;;;;;;;;34.25;29.50;;;;;27.87;53.96;100938.44;4995422;28;46560;-73
2023/06/11 15:06:22;;;;;;;;;32.75;28.25;;;;;27.95;53.26;100927.38;4994881;28;45428;-72
2023/06/11 15:08:49;;;;;;;;;31.50;29.75;;;;;28.04;53.41;100937.34;4994974;28;45785;-73
2023/06/11 15:11:14;;;;;;;;;30.00;27.25;;;;;28.05;53.66;100924.41;4971509;28;45445;-72
2023/06/11 15:13:40;;;;;;;;;27.00;26.25;;;;;28.05;53.66;100914.25;4960721;28;47789;-71
2023/06/11 15:16:06;;;;;;;;;31.25;29.50;;;;;28.04;53.89;100908.91;4994795;28;45295;-72
2023/06/11 15:18:31;;;;;;;;;29.50;28.50;;;;;27.99;53.79;100909.44;4995234;28;46147;-72
2023/06/11 15:20:56;;;;;;;;;35.00;28.00;;;;;28.08;53.91;100907.50;4994645;28;51820;-72
2023/06/11 15:23:22;;;;;;;;;29.75;27.50;;;;;28.32;53.87;100912.09;4994661;28;45409;-72
2023/06/11 15:25:48;;;;;;;;;32.00;26.75;;;;;28.57;52.92;100931.06;4994397;28;45427;-73
2023/06/11 15:28:14;;;;;;;;;31.00;29.00;;;;;28.89;52.47;100931.88;4995199;28;45369;-73
2023/06/11 15:30:42;;;;;;;;;25.50;24.25;;;;;29.05;51.60;100940.03;4991914;28;45282;-75
2023/06/11 15:33:08;;;;;;;;;29.00;24.00;;;;;29.22;51.10;100940.75;4974961;28;46250;-72
2023/06/11 15:35:33;;;;;;;;;23.50;21.25;;;;;29.46;51.20;100946.06;4990655;28;48817;-71
2023/06/11 15:37:58;;;;;;;;;22.50;22.00;;;;;29.72;50.61;100940.09;4994828;28;45223;-72